Aérodrome :







RETROUVEZ-NOUS SUR...

 
LOGIN :

S'inscrire | Disclaimer

   EN    FR    IT 

 









Légende :    VFR   VFR Marginal   IFR   IFR Intensif   IFR Très Intensif
Visi : 
Plafond : 
>= 8 km
>= 3000ft
5 à 8 km
1000 à 3000 ft
1500m à 5 km
500 à 1000 ft
800 à 1500m
200 à 500 ft
< 800m
< 200 ft
Symboles :   Orages  Brouillard  Fortes neiges  Fortes précipitations  Vent > 20 kt






- Altitude de l'aérodrome : 129 ft
- Code IATA : YVP


CYVP - Kuujjuak

DERNIER METAR :
  • 200500Z 24013G20KT 6SM IC DRSN BKN070 OVC110 M19/M23 A2949 RMK AS7AC1 SLP992

METARs EXPIRÉS :
  • 200400Z 24013G21KT 8SM IC DRSN OVC069 M19/M23 A2950 RMK AS8 SLP996
  • 200300Z 23012G18KT 10SM IC DRSN BKN072 M19/M23 A2951 RMK AS7 SLP998

TAF TAF CYVP
Valide du 20 à 00h jusqu'au 20 à 12h UTC


192342Z 2000/2012 24012G22KT P6SM -SN OVC025
TEMPO 2000/2012 2SM -SN BLSN OVC020 RMK NXT FCST BY 200600Z



MET'MAP, la Météo Aéronautique d'un coup d'oeil ! - Copyright ORBIFLY Décembre 2007 - Disclaimer

ORBIFLY MET'MAP TEAM :

Programmation & Développement : Alexandra Zaïnal
Sur une idée originale de : Baudouin d'Aumeries
Assistance à la programmation : Marc-Olivier Méhu
Soutien technique & logistique : Manuel Goepfert

Contact : metmap@orbifly.com




SOURCES & CREDITS :

   NOAA